sensor_id;sensor_type;location;lat;lon;timestamp;temperature;humidity
46364;DHT22;32071;49.036;9.344;2022-11-11T00:00:27;4.90;99.90
46364;DHT22;32071;49.036;9.344;2022-11-11T00:02:57;4.80;99.90
46364;DHT22;32071;49.036;9.344;2022-11-11T00:05:23;4.90;99.90
46364;DHT22;32071;49.036;9.344;2022-11-11T00:07:51;4.80;99.90
46364;DHT22;32071;49.036;9.344;2022-11-11T00:10:17;4.80;99.90
46364;DHT22;32071;49.036;9.344;2022-11-11T00:12:43;4.80;99.90
46364;DHT22;32071;49.036;9.344;2022-11-11T00:15:09;4.80;99.90
46364;DHT22;32071;49.036;9.344;2022-11-11T00:17:34;4.80;99.90
46364;DHT22;32071;49.036;9.344;2022-11-11T00:20:19;4.70;99.90
46364;DHT22;32071;49.036;9.344;2022-11-11T00:23:04;4.70;99.90
46364;DHT22;32071;49.036;9.344;2022-11-11T00:25:51;4.70;99.90
46364;DHT22;32071;49.036;9.344;2022-11-11T00:28:18;4.60;99.90
46364;DHT22;32071;49.036;9.344;2022-11-11T00:30:43;4.60;99.90
46364;DHT22;32071;49.036;9.344;2022-11-11T00:33:09;4.60;99.90
46364;DHT22;32071;49.036;9.344;2022-11-11T00:35:34;4.60;99.90
46364;DHT22;32071;49.036;9.344;2022-11-11T00:38:18;4.60;99.90
46364;DHT22;32071;49.036;9.344;2022-11-11T00:41:03;4.50;99.90
46364;DHT22;32071;49.036;9.344;2022-11-11T00:43:28;4.50;99.90
46364;DHT22;32071;49.036;9.344;2022-11-11T00:45:54;4.40;99.90
46364;DHT22;32071;49.036;9.344;2022-11-11T00:48:40;4.40;99.90
46364;DHT22;32071;49.036;9.344;2022-11-11T00:51:24;4.40;99.90
46364;DHT22;32071;49.036;9.344;2022-11-11T00:53:50;4.30;99.90
46364;DHT22;32071;49.036;9.344;2022-11-11T00:56:16;4.40;99.90
46364;DHT22;32071;49.036;9.344;2022-11-11T00:58:42;4.30;99.90
46364;DHT22;32071;49.036;9.344;2022-11-11T01:01:08;4.30;99.90
46364;DHT22;32071;49.036;9.344;2022-11-11T01:03:34;4.30;99.90
46364;DHT22;32071;49.036;9.344;2022-11-11T01:06:00;4.20;99.90
46364;DHT22;32071;49.036;9.344;2022-11-11T01:08:26;4.20;99.90
46364;DHT22;32071;49.036;9.344;2022-11-11T01:10:51;4.20;99.90
46364;DHT22;32071;49.036;9.344;2022-11-11T01:13:20;4.20;99.90
46364;DHT22;32071;49.036;9.344;2022-11-11T01:15:48;4.20;99.90
46364;DHT22;32071;49.036;9.344;2022-11-11T01:18:16;4.20;99.90
46364;DHT22;32071;49.036;9.344;2022-11-11T01:20:43;4.10;99.90
46364;DHT22;32071;49.036;9.344;2022-11-11T01:23:11;4.10;99.90
46364;DHT22;32071;49.036;9.344;2022-11-11T01:25:39;4.00;99.90
46364;DHT22;32071;49.036;9.344;2022-11-11T01:28:05;4.00;99.90
46364;DHT22;32071;49.036;9.344;2022-11-11T01:30:32;4.00;99.90
46364;DHT22;32071;49.036;9.344;2022-11-11T01:32:58;4.00;99.90
46364;DHT22;32071;49.036;9.344;2022-11-11T01:35:24;4.00;99.90
46364;DHT22;32071;49.036;9.344;2022-11-11T01:37:49;3.90;99.90
46364;DHT22;32071;49.036;9.344;2022-11-11T01:40:15;3.90;99.90
46364;DHT22;32071;49.036;9.344;2022-11-11T01:48:28;3.80;99.90
46364;DHT22;32071;49.036;9.344;2022-11-11T01:51:23;3.70;99.90
46364;DHT22;32071;49.036;9.344;2022-11-11T01:54:00;3.70;99.90
46364;DHT22;32071;49.036;9.344;2022-11-11T01:56:27;3.80;99.90
46364;DHT22;32071;49.036;9.344;2022-11-11T01:58:55;3.80;99.90
46364;DHT22;32071;49.036;9.344;2022-11-11T02:01:21;3.80;99.90
46364;DHT22;32071;49.036;9.344;2022-11-11T02:03:49;3.80;99.90
46364;DHT22;32071;49.036;9.344;2022-11-11T02:06:35;3.80;99.90
46364;DHT22;32071;49.036;9.344;2022-11-11T02:09:02;3.80;99.90
46364;DHT22;32071;49.036;9.344;2022-11-11T02:11:29;3.70;99.90
46364;DHT22;32071;49.036;9.344;2022-11-11T02:14:14;3.70;99.90
46364;DHT22;32071;49.036;9.344;2022-11-11T02:16:59;3.70;99.90
46364;DHT22;32071;49.036;9.344;2022-11-11T02:19:34;3.70;99.90
46364;DHT22;32071;49.036;9.344;2022-11-11T02:22:07;3.70;99.90
46364;DHT22;32071;49.036;9.344;2022-11-11T02:24:33;3.70;99.90
46364;DHT22;32071;49.036;9.344;2022-11-11T02:27:00;3.70;99.90
46364;DHT22;32071;49.036;9.344;2022-11-11T02:29:27;3.60;99.90
46364;DHT22;32071;49.036;9.344;2022-11-11T02:31:53;3.60;99.90
46364;DHT22;32071;49.036;9.344;2022-11-11T02:34:19;3.60;99.90
46364;DHT22;32071;49.036;9.344;2022-11-11T02:36:45;3.60;99.90
46364;DHT22;32071;49.036;9.344;2022-11-11T02:39:11;3.60;99.90
46364;DHT22;32071;49.036;9.344;2022-11-11T02:41:36;3.60;99.90
46364;DHT22;32071;49.036;9.344;2022-11-11T02:44:20;3.60;99.90
46364;DHT22;32071;49.036;9.344;2022-11-11T02:46:46;3.60;99.90
46364;DHT22;32071;49.036;9.344;2022-11-11T02:49:11;3.60;99.90
46364;DHT22;32071;49.036;9.344;2022-11-11T02:51:37;3.70;99.90
46364;DHT22;32071;49.036;9.344;2022-11-11T02:54:02;3.70;99.90
46364;DHT22;32071;49.036;9.344;2022-11-11T02:56:28;3.70;99.90
46364;DHT22;32071;49.036;9.344;2022-11-11T02:59:20;3.70;99.90
46364;DHT22;32071;49.036;9.344;2022-11-11T03:01:46;3.70;99.90
46364;DHT22;32071;49.036;9.344;2022-11-11T03:04:12;3.70;99.90
46364;DHT22;32071;49.036;9.344;2022-11-11T03:06:37;3.70;99.90
46364;DHT22;32071;49.036;9.344;2022-11-11T03:09:03;3.70;99.90
46364;DHT22;32071;49.036;9.344;2022-11-11T03:11:29;3.70;99.90
46364;DHT22;32071;49.036;9.344;2022-11-11T03:13:58;3.70;99.90
46364;DHT22;32071;49.036;9.344;2022-11-11T03:16:24;3.70;99.90
46364;DHT22;32071;49.036;9.344;2022-11-11T03:19:08;3.70;99.90
46364;DHT22;32071;49.036;9.344;2022-11-11T03:21:34;3.70;99.90
46364;DHT22;32071;49.036;9.344;2022-11-11T03:23:59;3.70;99.90
46364;DHT22;32071;49.036;9.344;2022-11-11T03:26:25;3.70;99.90
46364;DHT22;32071;49.036;9.344;2022-11-11T03:28:51;3.70;99.90
46364;DHT22;32071;49.036;9.344;2022-11-11T03:31:16;3.70;99.90
46364;DHT22;32071;49.036;9.344;2022-11-11T03:33:42;3.60;99.90
46364;DHT22;32071;49.036;9.344;2022-11-11T03:36:08;3.70;99.90
46364;DHT22;32071;49.036;9.344;2022-11-11T03:38:33;3.70;99.90
46364;DHT22;32071;49.036;9.344;2022-11-11T03:40:59;3.60;99.90
46364;DHT22;32071;49.036;9.344;2022-11-11T03:43:27;3.60;99.90
46364;DHT22;32071;49.036;9.344;2022-11-11T03:45:55;3.60;99.90
46364;DHT22;32071;49.036;9.344;2022-11-11T03:48:22;3.60;99.90
46364;DHT22;32071;49.036;9.344;2022-11-11T03:50:48;3.70;99.90
46364;DHT22;32071;49.036;9.344;2022-11-11T03:53:15;3.70;99.90
46364;DHT22;32071;49.036;9.344;2022-11-11T03:55:41;3.60;99.90
46364;DHT22;32071;49.036;9.344;2022-11-11T03:58:07;3.60;99.90
46364;DHT22;32071;49.036;9.344;2022-11-11T04:00:33;3.60;99.90
46364;DHT22;32071;49.036;9.344;2022-11-11T04:03:10;3.60;99.90
46364;DHT22;32071;49.036;9.344;2022-11-11T04:05:55;3.60;99.90
46364;DHT22;32071;49.036;9.344;2022-11-11T04:08:39;3.60;99.90
46364;DHT22;32071;49.036;9.344;2022-11-11T04:13:59;3.60;99.90
46364;DHT22;32071;49.036;9.344;2022-11-11T04:16:45;3.60;99.90
46364;DHT22;32071;49.036;9.344;2022-11-11T04:19:10;3.60;99.90
46364;DHT22;32071;49.036;9.344;2022-11-11T04:21:54;3.60;99.90
46364;DHT22;32071;49.036;9.344;2022-11-11T04:24:20;3.60;99.90
46364;DHT22;32071;49.036;9.344;2022-11-11T04:27:07;3.60;99.90
46364;DHT22;32071;49.036;9.344;2022-11-11T04:29:33;3.60;99.90
46364;DHT22;32071;49.036;9.344;2022-11-11T04:32:19;3.60;99.90
46364;DHT22;32071;49.036;9.344;2022-11-11T04:35:06;3.70;99.90
46364;DHT22;32071;49.036;9.344;2022-11-11T04:37:34;3.70;99.90
46364;DHT22;32071;49.036;9.344;2022-11-11T04:40:00;3.60;99.90
46364;DHT22;32071;49.036;9.344;2022-11-11T04:42:44;3.60;99.90
46364;DHT22;32071;49.036;9.344;2022-11-11T04:45:11;3.50;99.90
46364;DHT22;32071;49.036;9.344;2022-11-11T04:48:06;3.50;99.90
46364;DHT22;32071;49.036;9.344;2022-11-11T04:50:40;3.40;99.90
46364;DHT22;32071;49.036;9.344;2022-11-11T04:53:08;3.40;99.90
46364;DHT22;32071;49.036;9.344;2022-11-11T04:55:41;3.40;99.90
46364;DHT22;32071;49.036;9.344;2022-11-11T04:58:28;3.50;99.90
46364;DHT22;32071;49.036;9.344;2022-11-11T05:00:54;3.50;99.90
46364;DHT22;32071;49.036;9.344;2022-11-11T05:03:20;3.50;99.90
46364;DHT22;32071;49.036;9.344;2022-11-11T05:05:57;3.50;99.90
46364;DHT22;32071;49.036;9.344;2022-11-11T05:08:43;3.60;99.90
46364;DHT22;32071;49.036;9.344;2022-11-11T05:11:23;3.70;99.90
46364;DHT22;32071;49.036;9.344;2022-11-11T05:13:50;3.70;99.90
46364;DHT22;32071;49.036;9.344;2022-11-11T05:17:00;3.80;99.90
46364;DHT22;32071;49.036;9.344;2022-11-11T05:19:44;3.80;99.90
46364;DHT22;32071;49.036;9.344;2022-11-11T05:22:39;3.80;99.90
46364;DHT22;32071;49.036;9.344;2022-11-11T05:25:05;3.70;99.90
46364;DHT22;32071;49.036;9.344;2022-11-11T05:27:49;3.70;99.90
46364;DHT22;32071;49.036;9.344;2022-11-11T05:30:15;3.70;99.90
46364;DHT22;32071;49.036;9.344;2022-11-11T05:32:42;3.80;99.90
46364;DHT22;32071;49.036;9.344;2022-11-11T05:35:09;3.80;99.90
46364;DHT22;32071;49.036;9.344;2022-11-11T05:37:35;3.90;99.90
46364;DHT22;32071;49.036;9.344;2022-11-11T05:40:00;3.90;99.90
46364;DHT22;32071;49.036;9.344;2022-11-11T05:42:26;4.00;99.90
46364;DHT22;32071;49.036;9.344;2022-11-11T05:44:52;4.00;99.90
46364;DHT22;32071;49.036;9.344;2022-11-11T05:47:17;4.10;99.90
46364;DHT22;32071;49.036;9.344;2022-11-11T05:49:43;4.20;99.90
46364;DHT22;32071;49.036;9.344;2022-11-11T05:52:13;4.30;99.90
46364;DHT22;32071;49.036;9.344;2022-11-11T05:54:40;4.20;99.90
46364;DHT22;32071;49.036;9.344;2022-11-11T05:57:06;4.20;99.90
46364;DHT22;32071;49.036;9.344;2022-11-11T05:59:31;4.00;99.90
46364;DHT22;32071;49.036;9.344;2022-11-11T06:01:57;3.90;99.90
46364;DHT22;32071;49.036;9.344;2022-11-11T06:04:23;3.90;99.90
46364;DHT22;32071;49.036;9.344;2022-11-11T06:06:49;3.80;99.90
46364;DHT22;32071;49.036;9.344;2022-11-11T06:09:14;3.70;99.90
46364;DHT22;32071;49.036;9.344;2022-11-11T06:11:40;3.70;99.90
46364;DHT22;32071;49.036;9.344;2022-11-11T06:14:06;3.70;99.90
46364;DHT22;32071;49.036;9.344;2022-11-11T06:16:31;3.70;99.90
46364;DHT22;32071;49.036;9.344;2022-11-11T06:18:57;3.70;99.90
46364;DHT22;32071;49.036;9.344;2022-11-11T06:21:24;3.60;99.90
46364;DHT22;32071;49.036;9.344;2022-11-11T06:23:50;3.60;99.90
46364;DHT22;32071;49.036;9.344;2022-11-11T06:26:16;3.60;99.90
46364;DHT22;32071;49.036;9.344;2022-11-11T06:28:49;3.60;99.90
46364;DHT22;32071;49.036;9.344;2022-11-11T06:31:17;3.60;99.90
46364;DHT22;32071;49.036;9.344;2022-11-11T06:33:43;3.60;99.90
46364;DHT22;32071;49.036;9.344;2022-11-11T06:36:11;3.60;99.90
46364;DHT22;32071;49.036;9.344;2022-11-11T06:38:41;3.60;99.90
46364;DHT22;32071;49.036;9.344;2022-11-11T06:41:07;3.60;99.90
46364;DHT22;32071;49.036;9.344;2022-11-11T06:43:34;3.70;99.90
46364;DHT22;32071;49.036;9.344;2022-11-11T06:46:00;3.70;99.90
46364;DHT22;32071;49.036;9.344;2022-11-11T06:48:27;3.70;99.90
46364;DHT22;32071;49.036;9.344;2022-11-11T06:50:53;3.70;99.90
46364;DHT22;32071;49.036;9.344;2022-11-11T06:53:20;3.70;99.90
46364;DHT22;32071;49.036;9.344;2022-11-11T06:55:46;3.70;99.90
46364;DHT22;32071;49.036;9.344;2022-11-11T06:58:16;3.70;99.90
46364;DHT22;32071;49.036;9.344;2022-11-11T07:00:43;3.70;99.90
46364;DHT22;32071;49.036;9.344;2022-11-11T07:03:11;3.70;99.90
46364;DHT22;32071;49.036;9.344;2022-11-11T07:05:37;3.70;99.90
46364;DHT22;32071;49.036;9.344;2022-11-11T07:08:05;3.70;99.90
46364;DHT22;32071;49.036;9.344;2022-11-11T07:10:32;3.70;99.90
46364;DHT22;32071;49.036;9.344;2022-11-11T07:12:58;3.80;99.90
46364;DHT22;32071;49.036;9.344;2022-11-11T07:15:24;3.80;99.90
46364;DHT22;32071;49.036;9.344;2022-11-11T07:17:50;3.90;99.90
46364;DHT22;32071;49.036;9.344;2022-11-11T07:20:16;3.90;99.90
46364;DHT22;32071;49.036;9.344;2022-11-11T07:22:41;4.00;99.90
46364;DHT22;32071;49.036;9.344;2022-11-11T07:25:08;4.00;99.90
46364;DHT22;32071;49.036;9.344;2022-11-11T07:27:38;4.10;99.90
46364;DHT22;32071;49.036;9.344;2022-11-11T07:30:04;4.20;99.90
46364;DHT22;32071;49.036;9.344;2022-11-11T07:32:30;4.20;99.90
46364;DHT22;32071;49.036;9.344;2022-11-11T07:34:56;4.30;99.90
46364;DHT22;32071;49.036;9.344;2022-11-11T07:37:21;4.30;99.90
46364;DHT22;32071;49.036;9.344;2022-11-11T07:39:47;4.40;99.90
46364;DHT22;32071;49.036;9.344;2022-11-11T07:42:12;4.40;99.90
46364;DHT22;32071;49.036;9.344;2022-11-11T07:44:38;4.50;99.90
46364;DHT22;32071;49.036;9.344;2022-11-11T07:47:04;4.50;99.90
46364;DHT22;32071;49.036;9.344;2022-11-11T07:49:29;4.60;99.90
46364;DHT22;32071;49.036;9.344;2022-11-11T07:51:55;4.60;99.90
46364;DHT22;32071;49.036;9.344;2022-11-11T07:54:21;4.60;99.90
46364;DHT22;32071;49.036;9.344;2022-11-11T07:56:46;4.70;99.90
46364;DHT22;32071;49.036;9.344;2022-11-11T07:59:12;4.70;99.90
46364;DHT22;32071;49.036;9.344;2022-11-11T08:01:37;4.70;99.90
46364;DHT22;32071;49.036;9.344;2022-11-11T08:04:03;4.80;99.90
46364;DHT22;32071;49.036;9.344;2022-11-11T08:06:29;4.80;99.90
46364;DHT22;32071;49.036;9.344;2022-11-11T08:08:54;4.80;99.90
46364;DHT22;32071;49.036;9.344;2022-11-11T08:11:20;4.80;99.90
46364;DHT22;32071;49.036;9.344;2022-11-11T08:14:06;4.80;99.90
46364;DHT22;32071;49.036;9.344;2022-11-11T08:16:31;4.90;99.90
46364;DHT22;32071;49.036;9.344;2022-11-11T08:18:57;4.90;99.90
46364;DHT22;32071;49.036;9.344;2022-11-11T08:21:24;4.90;99.90
46364;DHT22;32071;49.036;9.344;2022-11-11T08:23:50;5.00;99.90
46364;DHT22;32071;49.036;9.344;2022-11-11T08:26:17;5.00;99.90
46364;DHT22;32071;49.036;9.344;2022-11-11T08:28:43;5.10;99.90
46364;DHT22;32071;49.036;9.344;2022-11-11T08:31:10;5.20;99.90
46364;DHT22;32071;49.036;9.344;2022-11-11T08:33:36;5.20;99.90
46364;DHT22;32071;49.036;9.344;2022-11-11T08:36:02;5.30;99.90
46364;DHT22;32071;49.036;9.344;2022-11-11T08:38:28;5.40;99.90
46364;DHT22;32071;49.036;9.344;2022-11-11T08:40:54;5.50;99.90
46364;DHT22;32071;49.036;9.344;2022-11-11T08:43:20;5.60;99.90
46364;DHT22;32071;49.036;9.344;2022-11-11T08:45:47;5.80;99.90
46364;DHT22;32071;49.036;9.344;2022-11-11T08:48:16;5.90;99.90
46364;DHT22;32071;49.036;9.344;2022-11-11T08:50:41;6.00;99.90
46364;DHT22;32071;49.036;9.344;2022-11-11T08:53:08;6.20;99.90
46364;DHT22;32071;49.036;9.344;2022-11-11T08:55:34;6.30;99.90
46364;DHT22;32071;49.036;9.344;2022-11-11T08:58:02;6.40;99.90
46364;DHT22;32071;49.036;9.344;2022-11-11T09:00:28;6.50;99.90
46364;DHT22;32071;49.036;9.344;2022-11-11T09:02:54;6.60;99.90
46364;DHT22;32071;49.036;9.344;2022-11-11T09:05:24;6.70;99.90
46364;DHT22;32071;49.036;9.344;2022-11-11T09:07:49;6.70;99.90
46364;DHT22;32071;49.036;9.344;2022-11-11T09:10:15;6.80;99.90
46364;DHT22;32071;49.036;9.344;2022-11-11T09:12:41;7.00;99.90
46364;DHT22;32071;49.036;9.344;2022-11-11T09:15:06;7.20;99.90
46364;DHT22;32071;49.036;9.344;2022-11-11T09:17:32;7.30;99.90
46364;DHT22;32071;49.036;9.344;2022-11-11T09:19:58;7.40;99.90
46364;DHT22;32071;49.036;9.344;2022-11-11T09:22:23;7.60;99.90
46364;DHT22;32071;49.036;9.344;2022-11-11T09:24:49;7.70;99.90
46364;DHT22;32071;49.036;9.344;2022-11-11T09:27:14;7.90;99.90
46364;DHT22;32071;49.036;9.344;2022-11-11T09:29:40;8.00;99.90
46364;DHT22;32071;49.036;9.344;2022-11-11T09:32:05;8.10;99.90
46364;DHT22;32071;49.036;9.344;2022-11-11T09:34:31;8.30;99.90
46364;DHT22;32071;49.036;9.344;2022-11-11T09:36:56;8.40;99.90
46364;DHT22;32071;49.036;9.344;2022-11-11T09:39:22;8.50;99.90
46364;DHT22;32071;49.036;9.344;2022-11-11T09:47:20;8.80;99.90
46364;DHT22;32071;49.036;9.344;2022-11-11T09:50:20;8.90;99.90
46364;DHT22;32071;49.036;9.344;2022-11-11T09:55:44;9.10;99.90
46364;DHT22;32071;49.036;9.344;2022-11-11T09:58:18;9.10;99.90
46364;DHT22;32071;49.036;9.344;2022-11-11T10:00:48;9.10;99.90
46364;DHT22;32071;49.036;9.344;2022-11-11T10:03:21;9.30;99.90
46364;DHT22;32071;49.036;9.344;2022-11-11T10:06:06;9.40;99.90
46364;DHT22;32071;49.036;9.344;2022-11-11T10:11:02;9.60;99.90
46364;DHT22;32071;49.036;9.344;2022-11-11T10:13:31;9.80;99.90
46364;DHT22;32071;49.036;9.344;2022-11-11T10:21:52;10.20;99.90
46364;DHT22;32071;49.036;9.344;2022-11-11T10:24:29;10.40;99.90
46364;DHT22;32071;49.036;9.344;2022-11-11T10:27:00;10.60;99.90
46364;DHT22;32071;49.036;9.344;2022-11-11T10:29:32;10.70;99.90
46364;DHT22;32071;49.036;9.344;2022-11-11T10:32:19;10.70;99.90
46364;DHT22;32071;49.036;9.344;2022-11-11T10:34:46;10.90;99.90
46364;DHT22;32071;49.036;9.344;2022-11-11T10:37:37;11.10;99.90
46364;DHT22;32071;49.036;9.344;2022-11-11T10:40:17;11.20;99.90
46364;DHT22;32071;49.036;9.344;2022-11-11T10:42:45;11.30;99.90
46364;DHT22;32071;49.036;9.344;2022-11-11T10:45:29;11.50;99.90
46364;DHT22;32071;49.036;9.344;2022-11-11T10:48:02;11.60;99.90
46364;DHT22;32071;49.036;9.344;2022-11-11T10:53:29;11.70;99.90
46364;DHT22;32071;49.036;9.344;2022-11-11T10:58:57;11.90;99.90
46364;DHT22;32071;49.036;9.344;2022-11-11T11:01:39;11.90;99.90
46364;DHT22;32071;49.036;9.344;2022-11-11T11:04:19;12.10;99.90
46364;DHT22;32071;49.036;9.344;2022-11-11T11:06:49;12.20;99.90
46364;DHT22;32071;49.036;9.344;2022-11-11T11:09:37;12.20;99.90
46364;DHT22;32071;49.036;9.344;2022-11-11T11:12:10;12.20;99.90
46364;DHT22;32071;49.036;9.344;2022-11-11T11:14:42;12.20;99.90
46364;DHT22;32071;49.036;9.344;2022-11-11T11:17:19;12.30;99.90
46364;DHT22;32071;49.036;9.344;2022-11-11T11:20:06;12.20;99.90
46364;DHT22;32071;49.036;9.344;2022-11-11T11:22:52;12.30;99.90
46364;DHT22;32071;49.036;9.344;2022-11-11T11:25:22;12.40;99.90
46364;DHT22;32071;49.036;9.344;2022-11-11T11:27:49;12.50;99.90
46364;DHT22;32071;49.036;9.344;2022-11-11T11:30:23;12.60;99.90
46364;DHT22;32071;49.036;9.344;2022-11-11T11:32:59;12.70;99.90
46364;DHT22;32071;49.036;9.344;2022-11-11T11:35:37;12.80;99.90
46364;DHT22;32071;49.036;9.344;2022-11-11T11:38:07;12.90;99.90
46364;DHT22;32071;49.036;9.344;2022-11-11T11:40:55;13.00;99.90
46364;DHT22;32071;49.036;9.344;2022-11-11T11:43:30;13.10;99.90
46364;DHT22;32071;49.036;9.344;2022-11-11T11:45:57;13.10;99.90
46364;DHT22;32071;49.036;9.344;2022-11-11T11:51:39;13.00;99.90
46364;DHT22;32071;49.036;9.344;2022-11-11T11:56:25;13.10;99.90
46364;DHT22;32071;49.036;9.344;2022-11-11T11:59:05;13.10;99.90
46364;DHT22;32071;49.036;9.344;2022-11-11T12:01:58;13.20;99.90
46364;DHT22;32071;49.036;9.344;2022-11-11T12:10:22;13.50;99.90
46364;DHT22;32071;49.036;9.344;2022-11-11T12:13:20;13.50;99.90
46364;DHT22;32071;49.036;9.344;2022-11-11T12:15:58;13.50;99.90
46364;DHT22;32071;49.036;9.344;2022-11-11T12:18:59;13.50;99.90
46364;DHT22;32071;49.036;9.344;2022-11-11T12:24:34;13.60;99.90
46364;DHT22;32071;49.036;9.344;2022-11-11T12:27:16;13.60;99.90
46364;DHT22;32071;49.036;9.344;2022-11-11T12:30:07;13.60;99.90
46364;DHT22;32071;49.036;9.344;2022-11-11T12:33:04;13.50;99.90
46364;DHT22;32071;49.036;9.344;2022-11-11T12:38:30;13.60;99.90
46364;DHT22;32071;49.036;9.344;2022-11-11T12:44:09;13.60;99.90
46364;DHT22;32071;49.036;9.344;2022-11-11T12:52:02;13.60;99.90
46364;DHT22;32071;49.036;9.344;2022-11-11T12:57:40;13.60;99.90
46364;DHT22;32071;49.036;9.344;2022-11-11T13:00:20;13.70;99.90
46364;DHT22;32071;49.036;9.344;2022-11-11T13:03:22;13.80;99.90
46364;DHT22;32071;49.036;9.344;2022-11-11T13:17:00;14.10;99.90
46364;DHT22;32071;49.036;9.344;2022-11-11T13:22:27;14.00;99.90
46364;DHT22;32071;49.036;9.344;2022-11-11T13:24:54;14.00;99.90
46364;DHT22;32071;49.036;9.344;2022-11-11T13:32:47;14.00;99.90
46364;DHT22;32071;49.036;9.344;2022-11-11T13:35:20;13.90;99.90
46364;DHT22;32071;49.036;9.344;2022-11-11T13:37:46;13.90;99.90
46364;DHT22;32071;49.036;9.344;2022-11-11T13:40:33;13.90;99.90
46364;DHT22;32071;49.036;9.344;2022-11-11T13:42:59;13.90;99.90
46364;DHT22;32071;49.036;9.344;2022-11-11T13:45:29;13.80;99.90
46364;DHT22;32071;49.036;9.344;2022-11-11T13:47:57;13.80;99.90
46364;DHT22;32071;49.036;9.344;2022-11-11T13:50:37;13.80;99.90
46364;DHT22;32071;49.036;9.344;2022-11-11T13:53:05;13.70;99.90
46364;DHT22;32071;49.036;9.344;2022-11-11T13:55:32;13.70;99.90
46364;DHT22;32071;49.036;9.344;2022-11-11T13:57:59;13.60;99.90
46364;DHT22;32071;49.036;9.344;2022-11-11T14:00:30;13.40;99.90
46364;DHT22;32071;49.036;9.344;2022-11-11T14:08:55;12.90;99.90
46364;DHT22;32071;49.036;9.344;2022-11-11T14:13:53;12.70;99.90
46364;DHT22;32071;49.036;9.344;2022-11-11T14:21:47;12.60;99.90
46364;DHT22;32071;49.036;9.344;2022-11-11T14:24:38;12.60;99.90
46364;DHT22;32071;49.036;9.344;2022-11-11T14:29:37;12.50;99.90
46364;DHT22;32071;49.036;9.344;2022-11-11T14:32:26;12.40;99.90
46364;DHT22;32071;49.036;9.344;2022-11-11T14:40:30;12.30;99.90
46364;DHT22;32071;49.036;9.344;2022-11-11T14:42:57;12.20;99.90
46364;DHT22;32071;49.036;9.344;2022-11-11T14:47:55;12.10;99.90
46364;DHT22;32071;49.036;9.344;2022-11-11T14:52:57;12.00;99.90
46364;DHT22;32071;49.036;9.344;2022-11-11T14:55:36;11.90;99.90
46364;DHT22;32071;49.036;9.344;2022-11-11T14:58:14;11.80;99.90
46364;DHT22;32071;49.036;9.344;2022-11-11T15:06:17;11.50;99.90
46364;DHT22;32071;49.036;9.344;2022-11-11T15:14:08;11.30;99.90
46364;DHT22;32071;49.036;9.344;2022-11-11T15:28:06;10.90;99.90
46364;DHT22;32071;49.036;9.344;2022-11-11T15:30:58;10.80;99.90
46364;DHT22;32071;49.036;9.344;2022-11-11T15:38:46;10.50;99.90
46364;DHT22;32071;49.036;9.344;2022-11-11T15:41:26;10.50;99.90
46364;DHT22;32071;49.036;9.344;2022-11-11T15:43:53;10.30;99.90
46364;DHT22;32071;49.036;9.344;2022-11-11T15:46:28;10.20;99.90
46364;DHT22;32071;49.036;9.344;2022-11-11T15:48:54;10.10;99.90
46364;DHT22;32071;49.036;9.344;2022-11-11T15:51:31;10.00;99.90
46364;DHT22;32071;49.036;9.344;2022-11-11T15:56:44;9.70;99.90
46364;DHT22;32071;49.036;9.344;2022-11-11T15:59:17;9.60;99.90
46364;DHT22;32071;49.036;9.344;2022-11-11T16:01:44;9.50;99.90
46364;DHT22;32071;49.036;9.344;2022-11-11T16:04:16;9.50;99.90
46364;DHT22;32071;49.036;9.344;2022-11-11T16:06:43;9.40;99.90
46364;DHT22;32071;49.036;9.344;2022-11-11T16:09:12;9.40;99.90
46364;DHT22;32071;49.036;9.344;2022-11-11T16:11:39;9.30;99.90
46364;DHT22;32071;49.036;9.344;2022-11-11T16:14:05;9.20;99.90
46364;DHT22;32071;49.036;9.344;2022-11-11T16:16:35;9.10;99.90
46364;DHT22;32071;49.036;9.344;2022-11-11T16:19:15;9.00;99.90
46364;DHT22;32071;49.036;9.344;2022-11-11T16:21:55;8.90;99.90
46364;DHT22;32071;49.036;9.344;2022-11-11T16:24:30;8.90;99.90
46364;DHT22;32071;49.036;9.344;2022-11-11T16:26:56;8.70;99.90
46364;DHT22;32071;49.036;9.344;2022-11-11T16:29:28;8.60;99.90
46364;DHT22;32071;49.036;9.344;2022-11-11T16:31:55;8.50;99.90
46364;DHT22;32071;49.036;9.344;2022-11-11T16:37:06;8.40;99.90
46364;DHT22;32071;49.036;9.344;2022-11-11T16:39:33;8.30;99.90
46364;DHT22;32071;49.036;9.344;2022-11-11T16:42:03;8.20;99.90
46364;DHT22;32071;49.036;9.344;2022-11-11T16:44:35;8.10;99.90
46364;DHT22;32071;49.036;9.344;2022-11-11T16:47:03;8.10;99.90
46364;DHT22;32071;49.036;9.344;2022-11-11T16:49:41;8.10;99.90
46364;DHT22;32071;49.036;9.344;2022-11-11T16:52:19;8.10;99.90
46364;DHT22;32071;49.036;9.344;2022-11-11T16:54:52;8.10;99.90
46364;DHT22;32071;49.036;9.344;2022-11-11T16:57:22;8.10;99.90
46364;DHT22;32071;49.036;9.344;2022-11-11T16:59:52;8.10;99.90
46364;DHT22;32071;49.036;9.344;2022-11-11T17:02:21;8.00;99.90
46364;DHT22;32071;49.036;9.344;2022-11-11T17:04:50;8.00;99.90
46364;DHT22;32071;49.036;9.344;2022-11-11T17:10:11;7.90;99.90
46364;DHT22;32071;49.036;9.344;2022-11-11T17:12:38;7.90;99.90
46364;DHT22;32071;49.036;9.344;2022-11-11T17:15:14;7.80;99.90
46364;DHT22;32071;49.036;9.344;2022-11-11T17:17:42;7.70;99.90
46364;DHT22;32071;49.036;9.344;2022-11-11T17:20:18;7.60;99.90
46364;DHT22;32071;49.036;9.344;2022-11-11T17:22:52;7.60;99.90
46364;DHT22;32071;49.036;9.344;2022-11-11T17:25:18;7.50;99.90
46364;DHT22;32071;49.036;9.344;2022-11-11T17:27:43;7.50;99.90
46364;DHT22;32071;49.036;9.344;2022-11-11T17:30:13;7.40;99.90
46364;DHT22;32071;49.036;9.344;2022-11-11T17:32:39;7.30;99.90
46364;DHT22;32071;49.036;9.344;2022-11-11T17:35:05;7.30;99.90
46364;DHT22;32071;49.036;9.344;2022-11-11T17:37:34;7.20;99.90
46364;DHT22;32071;49.036;9.344;2022-11-11T17:40:00;7.20;99.90
46364;DHT22;32071;49.036;9.344;2022-11-11T17:42:27;7.20;99.90
46364;DHT22;32071;49.036;9.344;2022-11-11T17:44:54;7.10;99.90
46364;DHT22;32071;49.036;9.344;2022-11-11T17:47:19;7.00;99.90
46364;DHT22;32071;49.036;9.344;2022-11-11T17:49:45;6.90;99.90
46364;DHT22;32071;49.036;9.344;2022-11-11T17:52:10;6.90;99.90
46364;DHT22;32071;49.036;9.344;2022-11-11T17:54:36;6.80;99.90
46364;DHT22;32071;49.036;9.344;2022-11-11T17:57:01;6.80;99.90
46364;DHT22;32071;49.036;9.344;2022-11-11T17:59:27;6.70;99.90
46364;DHT22;32071;49.036;9.344;2022-11-11T18:01:55;6.70;99.90
46364;DHT22;32071;49.036;9.344;2022-11-11T18:04:20;6.60;99.90
46364;DHT22;32071;49.036;9.344;2022-11-11T18:06:46;6.60;99.90
46364;DHT22;32071;49.036;9.344;2022-11-11T18:09:11;6.50;99.90
46364;DHT22;32071;49.036;9.344;2022-11-11T18:11:37;6.50;99.90
46364;DHT22;32071;49.036;9.344;2022-11-11T18:14:03;6.50;99.90
46364;DHT22;32071;49.036;9.344;2022-11-11T18:16:28;6.40;99.90
46364;DHT22;32071;49.036;9.344;2022-11-11T18:18:54;6.40;99.90
46364;DHT22;32071;49.036;9.344;2022-11-11T18:21:24;6.30;99.90
46364;DHT22;32071;49.036;9.344;2022-11-11T18:23:50;6.30;99.90
46364;DHT22;32071;49.036;9.344;2022-11-11T18:26:16;6.20;99.90